sensor_id;sensor_type;location;lat;lon;timestamp;temperature;humidity
52036;DHT22;38046;49.448;32.074;2023-03-23T00:01:11;9.70;78.90
52036;DHT22;38046;49.448;32.074;2023-03-23T00:03:40;9.70;79.00
52036;DHT22;38046;49.448;32.074;2023-03-23T00:06:07;9.60;79.00
52036;DHT22;38046;49.448;32.074;2023-03-23T00:08:35;9.60;79.10
52036;DHT22;38046;49.448;32.074;2023-03-23T00:11:11;9.60;79.10
52036;DHT22;38046;49.448;32.074;2023-03-23T00:13:41;9.50;79.10
52036;DHT22;38046;49.448;32.074;2023-03-23T00:16:07;9.50;79.20
52036;DHT22;38046;49.448;32.074;2023-03-23T00:18:50;9.40;79.50
52036;DHT22;38046;49.448;32.074;2023-03-23T00:21:20;9.40;79.70
52036;DHT22;38046;49.448;32.074;2023-03-23T00:23:45;9.40;80.00
52036;DHT22;38046;49.448;32.074;2023-03-23T00:26:12;9.40;79.90
52036;DHT22;38046;49.448;32.074;2023-03-23T00:28:38;9.50;79.90
52036;DHT22;38046;49.448;32.074;2023-03-23T00:31:06;9.50;79.90
52036;DHT22;38046;49.448;32.074;2023-03-23T00:33:35;9.50;79.90
52036;DHT22;38046;49.448;32.074;2023-03-23T00:36:13;9.50;79.90
52036;DHT22;38046;49.448;32.074;2023-03-23T00:38:40;9.60;79.70
52036;DHT22;38046;49.448;32.074;2023-03-23T00:41:07;9.60;79.60
52036;DHT22;38046;49.448;32.074;2023-03-23T00:43:33;9.60;79.40
52036;DHT22;38046;49.448;32.074;2023-03-23T00:46:03;9.60;79.40
52036;DHT22;38046;49.448;32.074;2023-03-23T00:48:34;9.60;79.30
52036;DHT22;38046;49.448;32.074;2023-03-23T00:51:01;9.60;79.30
52036;DHT22;38046;49.448;32.074;2023-03-23T00:53:32;9.50;79.40
52036;DHT22;38046;49.448;32.074;2023-03-23T00:55:58;9.50;79.50
52036;DHT22;38046;49.448;32.074;2023-03-23T00:58:24;9.40;79.60
52036;DHT22;38046;49.448;32.074;2023-03-23T01:00:50;9.40;79.70
52036;DHT22;38046;49.448;32.074;2023-03-23T01:03:16;9.40;79.80
52036;DHT22;38046;49.448;32.074;2023-03-23T01:05:44;9.50;79.70
52036;DHT22;38046;49.448;32.074;2023-03-23T01:08:13;9.40;79.50
52036;DHT22;38046;49.448;32.074;2023-03-23T01:10:39;9.40;79.50
52036;DHT22;38046;49.448;32.074;2023-03-23T01:13:06;9.40;79.50
52036;DHT22;38046;49.448;32.074;2023-03-23T01:15:31;9.30;79.50
52036;DHT22;38046;49.448;32.074;2023-03-23T01:17:57;9.30;79.50
52036;DHT22;38046;49.448;32.074;2023-03-23T01:20:24;9.30;79.50
52036;DHT22;38046;49.448;32.074;2023-03-23T01:22:52;9.30;79.50
52036;DHT22;38046;49.448;32.074;2023-03-23T01:25:18;9.30;79.20
52036;DHT22;38046;49.448;32.074;2023-03-23T01:27:44;9.30;79.30
52036;DHT22;38046;49.448;32.074;2023-03-23T01:30:11;9.30;79.40
52036;DHT22;38046;49.448;32.074;2023-03-23T01:32:38;9.30;79.40
52036;DHT22;38046;49.448;32.074;2023-03-23T01:35:04;9.20;79.40
52036;DHT22;38046;49.448;32.074;2023-03-23T01:37:30;9.20;79.70
52036;DHT22;38046;49.448;32.074;2023-03-23T01:39:56;9.20;79.70
52036;DHT22;38046;49.448;32.074;2023-03-23T01:42:29;9.20;79.70
52036;DHT22;38046;49.448;32.074;2023-03-23T01:47:36;9.10;79.50
52036;DHT22;38046;49.448;32.074;2023-03-23T01:50:02;9.00;79.60
52036;DHT22;38046;49.448;32.074;2023-03-23T01:52:28;9.00;79.70
52036;DHT22;38046;49.448;32.074;2023-03-23T01:54:55;9.00;80.00
52036;DHT22;38046;49.448;32.074;2023-03-23T01:57:24;9.00;80.20
52036;DHT22;38046;49.448;32.074;2023-03-23T01:59:53;9.00;80.20
52036;DHT22;38046;49.448;32.074;2023-03-23T02:02:22;9.00;80.10
52036;DHT22;38046;49.448;32.074;2023-03-23T02:04:49;9.00;80.10
52036;DHT22;38046;49.448;32.074;2023-03-23T02:07:17;8.90;80.00
52036;DHT22;38046;49.448;32.074;2023-03-23T02:09:44;8.90;80.80
52036;DHT22;38046;49.448;32.074;2023-03-23T02:12:10;8.90;80.30
52036;DHT22;38046;49.448;32.074;2023-03-23T02:14:36;9.00;80.40
52036;DHT22;38046;49.448;32.074;2023-03-23T02:17:30;9.00;80.40
52036;DHT22;38046;49.448;32.074;2023-03-23T02:31:42;9.00;80.70
52036;DHT22;38046;49.448;32.074;2023-03-23T02:36:52;9.10;80.70
52036;DHT22;38046;49.448;32.074;2023-03-23T02:39:25;9.20;80.70
52036;DHT22;38046;49.448;32.074;2023-03-23T02:42:02;9.20;80.60
52036;DHT22;38046;49.448;32.074;2023-03-23T02:44:31;9.30;80.50
52036;DHT22;38046;49.448;32.074;2023-03-23T02:47:00;9.30;80.40
52036;DHT22;38046;49.448;32.074;2023-03-23T02:49:28;9.30;80.20
52036;DHT22;38046;49.448;32.074;2023-03-23T02:51:57;9.40;80.20
52036;DHT22;38046;49.448;32.074;2023-03-23T02:54:24;9.40;80.90
52036;DHT22;38046;49.448;32.074;2023-03-23T02:56:52;9.40;80.90
52036;DHT22;38046;49.448;32.074;2023-03-23T02:59:20;9.40;80.60
52036;DHT22;38046;49.448;32.074;2023-03-23T03:02:07;9.40;80.40
52036;DHT22;38046;49.448;32.074;2023-03-23T03:04:34;9.40;80.60
52036;DHT22;38046;49.448;32.074;2023-03-23T03:07:30;9.50;80.40
52036;DHT22;38046;49.448;32.074;2023-03-23T03:10:42;9.50;80.30
52036;DHT22;38046;49.448;32.074;2023-03-23T03:13:14;9.50;80.30
52036;DHT22;38046;49.448;32.074;2023-03-23T03:15:44;9.40;80.40
52036;DHT22;38046;49.448;32.074;2023-03-23T03:18:26;9.40;80.40
52036;DHT22;38046;49.448;32.074;2023-03-23T03:21:01;9.30;80.50
52036;DHT22;38046;49.448;32.074;2023-03-23T03:23:29;9.30;80.80
52036;DHT22;38046;49.448;32.074;2023-03-23T03:25:57;9.30;80.80
52036;DHT22;38046;49.448;32.074;2023-03-23T03:28:24;9.30;80.90
52036;DHT22;38046;49.448;32.074;2023-03-23T03:30:56;9.30;80.60
52036;DHT22;38046;49.448;32.074;2023-03-23T03:33:27;9.30;80.60
52036;DHT22;38046;49.448;32.074;2023-03-23T03:35:57;9.30;80.60
52036;DHT22;38046;49.448;32.074;2023-03-23T03:38:24;9.30;80.30
52036;DHT22;38046;49.448;32.074;2023-03-23T03:40:51;9.30;80.20
52036;DHT22;38046;49.448;32.074;2023-03-23T03:43:17;9.30;80.50
52036;DHT22;38046;49.448;32.074;2023-03-23T03:45:43;9.20;80.20
52036;DHT22;38046;49.448;32.074;2023-03-23T03:48:09;9.20;80.20
52036;DHT22;38046;49.448;32.074;2023-03-23T03:50:35;9.10;80.30
52036;DHT22;38046;49.448;32.074;2023-03-23T03:53:01;9.10;80.40
52036;DHT22;38046;49.448;32.074;2023-03-23T03:55:27;9.10;80.40
52036;DHT22;38046;49.448;32.074;2023-03-23T03:57:54;9.10;80.40
52036;DHT22;38046;49.448;32.074;2023-03-23T04:00:20;9.10;80.40
52036;DHT22;38046;49.448;32.074;2023-03-23T04:02:49;9.10;80.50
52036;DHT22;38046;49.448;32.074;2023-03-23T04:05:21;9.10;80.40
52036;DHT22;38046;49.448;32.074;2023-03-23T04:07:47;9.10;80.40
52036;DHT22;38046;49.448;32.074;2023-03-23T04:10:17;9.10;80.40
52036;DHT22;38046;49.448;32.074;2023-03-23T04:12:45;9.20;80.30
52036;DHT22;38046;49.448;32.074;2023-03-23T04:15:11;9.10;80.30
52036;DHT22;38046;49.448;32.074;2023-03-23T04:17:36;9.20;80.30
52036;DHT22;38046;49.448;32.074;2023-03-23T04:20:04;9.10;80.30
52036;DHT22;38046;49.448;32.074;2023-03-23T04:22:39;9.10;80.40
52036;DHT22;38046;49.448;32.074;2023-03-23T04:25:09;9.10;80.50
52036;DHT22;38046;49.448;32.074;2023-03-23T04:27:36;9.20;80.70
52036;DHT22;38046;49.448;32.074;2023-03-23T04:30:02;9.20;80.80
52036;DHT22;38046;49.448;32.074;2023-03-23T04:32:30;9.20;80.90
52036;DHT22;38046;49.448;32.074;2023-03-23T04:34:56;9.20;80.90
52036;DHT22;38046;49.448;32.074;2023-03-23T04:37:24;9.20;81.10
52036;DHT22;38046;49.448;32.074;2023-03-23T04:39:55;9.20;81.10
52036;DHT22;38046;49.448;32.074;2023-03-23T04:42:31;9.20;81.30
52036;DHT22;38046;49.448;32.074;2023-03-23T04:44:59;9.20;81.50
52036;DHT22;38046;49.448;32.074;2023-03-23T04:47:26;9.30;81.80
52036;DHT22;38046;49.448;32.074;2023-03-23T04:49:56;9.30;81.90
52036;DHT22;38046;49.448;32.074;2023-03-23T04:52:25;9.40;82.10
52036;DHT22;38046;49.448;32.074;2023-03-23T04:54:54;9.50;81.90
52036;DHT22;38046;49.448;32.074;2023-03-23T04:57:22;9.60;81.80
52036;DHT22;38046;49.448;32.074;2023-03-23T04:59:47;9.70;81.60
52036;DHT22;38046;49.448;32.074;2023-03-23T05:02:14;9.80;81.40
52036;DHT22;38046;49.448;32.074;2023-03-23T05:04:40;9.90;81.30
52036;DHT22;38046;49.448;32.074;2023-03-23T05:07:07;10.00;81.30
52036;DHT22;38046;49.448;32.074;2023-03-23T05:09:34;10.20;81.40
52036;DHT22;38046;49.448;32.074;2023-03-23T05:12:05;10.20;81.70
52036;DHT22;38046;49.448;32.074;2023-03-23T05:14:31;10.40;82.10
52036;DHT22;38046;49.448;32.074;2023-03-23T05:16:57;10.50;82.30
52036;DHT22;38046;49.448;32.074;2023-03-23T05:19:22;10.70;82.00
52036;DHT22;38046;49.448;32.074;2023-03-23T05:21:48;10.90;81.90
52036;DHT22;38046;49.448;32.074;2023-03-23T05:24:13;11.10;81.70
52036;DHT22;38046;49.448;32.074;2023-03-23T05:26:39;11.40;81.20
52036;DHT22;38046;49.448;32.074;2023-03-23T05:29:05;11.60;80.40
52036;DHT22;38046;49.448;32.074;2023-03-23T05:31:30;11.90;79.80
52036;DHT22;38046;49.448;32.074;2023-03-23T05:33:57;12.10;79.60
52036;DHT22;38046;49.448;32.074;2023-03-23T05:36:23;12.40;78.80
52036;DHT22;38046;49.448;32.074;2023-03-23T05:38:52;12.70;78.10
52036;DHT22;38046;49.448;32.074;2023-03-23T05:41:18;12.90;77.10
52036;DHT22;38046;49.448;32.074;2023-03-23T05:43:43;13.20;76.60
52036;DHT22;38046;49.448;32.074;2023-03-23T05:46:09;13.40;75.90
52036;DHT22;38046;49.448;32.074;2023-03-23T05:48:35;13.50;75.40
52036;DHT22;38046;49.448;32.074;2023-03-23T05:51:02;13.70;74.80
52036;DHT22;38046;49.448;32.074;2023-03-23T05:53:28;13.90;74.00
52036;DHT22;38046;49.448;32.074;2023-03-23T05:55:58;13.90;73.50
52036;DHT22;38046;49.448;32.074;2023-03-23T05:58:25;13.90;73.60
52036;DHT22;38046;49.448;32.074;2023-03-23T06:00:50;14.10;73.80
52036;DHT22;38046;49.448;32.074;2023-03-23T06:03:16;14.30;73.20
52036;DHT22;38046;49.448;32.074;2023-03-23T06:05:45;14.50;72.50
52036;DHT22;38046;49.448;32.074;2023-03-23T06:08:11;14.70;72.30
52036;DHT22;38046;49.448;32.074;2023-03-23T06:10:37;14.90;72.20
52036;DHT22;38046;49.448;32.074;2023-03-23T06:13:04;15.20;72.00
52036;DHT22;38046;49.448;32.074;2023-03-23T06:15:30;15.50;71.10
52036;DHT22;38046;49.448;32.074;2023-03-23T06:18:04;15.90;70.50
52036;DHT22;38046;49.448;32.074;2023-03-23T06:20:30;16.50;69.10
52036;DHT22;38046;49.448;32.074;2023-03-23T06:22:56;16.90;67.10
52036;DHT22;38046;49.448;32.074;2023-03-23T06:25:22;17.20;65.80
52036;DHT22;38046;49.448;32.074;2023-03-23T06:27:49;17.20;65.10
52036;DHT22;38046;49.448;32.074;2023-03-23T06:30:15;17.10;65.00
52036;DHT22;38046;49.448;32.074;2023-03-23T06:32:41;16.80;65.10
52036;DHT22;38046;49.448;32.074;2023-03-23T06:35:09;16.50;65.60
52036;DHT22;38046;49.448;32.074;2023-03-23T06:37:36;16.30;66.20
52036;DHT22;38046;49.448;32.074;2023-03-23T06:40:02;15.90;66.50
52036;DHT22;38046;49.448;32.074;2023-03-23T06:42:30;15.70;67.10
52036;DHT22;38046;49.448;32.074;2023-03-23T06:44:55;15.30;67.60
52036;DHT22;38046;49.448;32.074;2023-03-23T06:47:23;15.10;68.00
52036;DHT22;38046;49.448;32.074;2023-03-23T06:49:49;14.90;68.20
52036;DHT22;38046;49.448;32.074;2023-03-23T06:52:15;14.70;68.40
52036;DHT22;38046;49.448;32.074;2023-03-23T06:54:41;14.70;68.40
52036;DHT22;38046;49.448;32.074;2023-03-23T06:57:07;14.60;68.40
52036;DHT22;38046;49.448;32.074;2023-03-23T06:59:33;14.50;68.50
52036;DHT22;38046;49.448;32.074;2023-03-23T07:01:59;14.40;68.50
52036;DHT22;38046;49.448;32.074;2023-03-23T07:04:24;14.40;68.80
52036;DHT22;38046;49.448;32.074;2023-03-23T07:06:50;14.30;68.90
52036;DHT22;38046;49.448;32.074;2023-03-23T07:09:16;14.20;69.20
52036;DHT22;38046;49.448;32.074;2023-03-23T07:11:41;14.10;69.50
52036;DHT22;38046;49.448;32.074;2023-03-23T07:14:07;14.00;69.80
52036;DHT22;38046;49.448;32.074;2023-03-23T07:16:33;14.00;70.70
52036;DHT22;38046;49.448;32.074;2023-03-23T07:18:59;14.00;70.20
52036;DHT22;38046;49.448;32.074;2023-03-23T07:21:26;14.10;70.20
52036;DHT22;38046;49.448;32.074;2023-03-23T07:23:52;14.10;70.10
52036;DHT22;38046;49.448;32.074;2023-03-23T07:26:17;14.20;70.00
52036;DHT22;38046;49.448;32.074;2023-03-23T07:28:43;14.30;70.00
52036;DHT22;38046;49.448;32.074;2023-03-23T07:31:09;14.30;69.90
52036;DHT22;38046;49.448;32.074;2023-03-23T07:33:35;14.40;70.00
52036;DHT22;38046;49.448;32.074;2023-03-23T07:36:01;14.50;70.00
52036;DHT22;38046;49.448;32.074;2023-03-23T07:38:28;14.60;69.90
52036;DHT22;38046;49.448;32.074;2023-03-23T07:40:55;14.70;69.90
52036;DHT22;38046;49.448;32.074;2023-03-23T07:43:22;14.70;69.80
52036;DHT22;38046;49.448;32.074;2023-03-23T07:45:47;14.80;69.90
52036;DHT22;38046;49.448;32.074;2023-03-23T07:48:16;14.90;69.80
52036;DHT22;38046;49.448;32.074;2023-03-23T07:50:42;15.00;69.30
52036;DHT22;38046;49.448;32.074;2023-03-23T07:53:08;15.00;68.80
52036;DHT22;38046;49.448;32.074;2023-03-23T07:55:33;14.90;68.90
52036;DHT22;38046;49.448;32.074;2023-03-23T07:57:59;14.90;69.00
52036;DHT22;38046;49.448;32.074;2023-03-23T08:00:25;14.90;68.90
52036;DHT22;38046;49.448;32.074;2023-03-23T08:02:53;14.90;68.70
52036;DHT22;38046;49.448;32.074;2023-03-23T08:05:21;14.80;68.60
52036;DHT22;38046;49.448;32.074;2023-03-23T08:07:48;14.80;68.40
52036;DHT22;38046;49.448;32.074;2023-03-23T08:10:15;14.80;68.20
52036;DHT22;38046;49.448;32.074;2023-03-23T08:12:43;14.80;68.30
52036;DHT22;38046;49.448;32.074;2023-03-23T08:15:13;14.70;68.20
52036;DHT22;38046;49.448;32.074;2023-03-23T08:17:42;14.70;68.40
52036;DHT22;38046;49.448;32.074;2023-03-23T08:20:09;14.60;68.40
52036;DHT22;38046;49.448;32.074;2023-03-23T08:22:43;14.60;68.30
52036;DHT22;38046;49.448;32.074;2023-03-23T08:25:14;14.60;68.20
52036;DHT22;38046;49.448;32.074;2023-03-23T08:27:40;14.60;68.30
52036;DHT22;38046;49.448;32.074;2023-03-23T08:30:16;14.50;68.20
52036;DHT22;38046;49.448;32.074;2023-03-23T08:32:42;14.40;68.20
52036;DHT22;38046;49.448;32.074;2023-03-23T08:35:09;14.40;68.10
52036;DHT22;38046;49.448;32.074;2023-03-23T08:37:36;14.40;68.10
52036;DHT22;38046;49.448;32.074;2023-03-23T08:40:03;14.30;68.10
52036;DHT22;38046;49.448;32.074;2023-03-23T08:42:37;14.30;68.10
52036;DHT22;38046;49.448;32.074;2023-03-23T08:45:07;14.30;68.20
52036;DHT22;38046;49.448;32.074;2023-03-23T08:47:34;14.20;68.20
52036;DHT22;38046;49.448;32.074;2023-03-23T08:50:01;14.20;68.30
52036;DHT22;38046;49.448;32.074;2023-03-23T08:52:27;14.10;68.30
52036;DHT22;38046;49.448;32.074;2023-03-23T08:54:54;14.00;68.30
52036;DHT22;38046;49.448;32.074;2023-03-23T08:57:19;14.00;68.50
52036;DHT22;38046;49.448;32.074;2023-03-23T08:59:45;14.00;68.70
52036;DHT22;38046;49.448;32.074;2023-03-23T09:02:11;14.00;68.90
52036;DHT22;38046;49.448;32.074;2023-03-23T09:04:38;14.00;68.50
52036;DHT22;38046;49.448;32.074;2023-03-23T09:07:05;13.90;68.50
52036;DHT22;38046;49.448;32.074;2023-03-23T09:09:31;13.80;68.80
52036;DHT22;38046;49.448;32.074;2023-03-23T09:11:59;13.80;69.20
52036;DHT22;38046;49.448;32.074;2023-03-23T09:14:25;13.80;70.30
52036;DHT22;38046;49.448;32.074;2023-03-23T09:16:50;13.80;69.90
52036;DHT22;38046;49.448;32.074;2023-03-23T09:19:16;13.90;70.00
52036;DHT22;38046;49.448;32.074;2023-03-23T09:21:43;13.90;69.80
52036;DHT22;38046;49.448;32.074;2023-03-23T09:24:10;14.00;70.00
52036;DHT22;38046;49.448;32.074;2023-03-23T09:26:36;14.10;70.40
52036;DHT22;38046;49.448;32.074;2023-03-23T09:29:02;14.20;69.70
52036;DHT22;38046;49.448;32.074;2023-03-23T09:31:28;14.20;69.70
52036;DHT22;38046;49.448;32.074;2023-03-23T09:33:54;14.30;69.50
52036;DHT22;38046;49.448;32.074;2023-03-23T09:36:22;14.30;69.40
52036;DHT22;38046;49.448;32.074;2023-03-23T09:38:49;14.30;69.20
52036;DHT22;38046;49.448;32.074;2023-03-23T09:41:27;14.30;69.10
52036;DHT22;38046;49.448;32.074;2023-03-23T09:44:08;14.30;69.30
52036;DHT22;38046;49.448;32.074;2023-03-23T09:49:22;14.30;69.60
52036;DHT22;38046;49.448;32.074;2023-03-23T09:56:51;14.30;69.60
52036;DHT22;38046;49.448;32.074;2023-03-23T10:02:41;14.40;69.80
52036;DHT22;38046;49.448;32.074;2023-03-23T10:07:51;14.50;69.70
52036;DHT22;38046;49.448;32.074;2023-03-23T10:10:17;14.60;69.80
52036;DHT22;38046;49.448;32.074;2023-03-23T10:12:55;14.70;69.70
52036;DHT22;38046;49.448;32.074;2023-03-23T10:15:27;14.70;69.30
52036;DHT22;38046;49.448;32.074;2023-03-23T10:18:17;14.70;69.00
52036;DHT22;38046;49.448;32.074;2023-03-23T10:20:56;14.60;69.00
52036;DHT22;38046;49.448;32.074;2023-03-23T10:23:34;14.60;69.10
52036;DHT22;38046;49.448;32.074;2023-03-23T10:26:25;14.50;68.90
52036;DHT22;38046;49.448;32.074;2023-03-23T10:28:56;14.40;68.90
52036;DHT22;38046;49.448;32.074;2023-03-23T10:31:31;14.40;69.40
52036;DHT22;38046;49.448;32.074;2023-03-23T10:34:03;14.30;69.70
52036;DHT22;38046;49.448;32.074;2023-03-23T10:36:40;14.30;69.90
52036;DHT22;38046;49.448;32.074;2023-03-23T10:39:11;14.30;69.90
52036;DHT22;38046;49.448;32.074;2023-03-23T10:41:38;14.30;69.90
52036;DHT22;38046;49.448;32.074;2023-03-23T10:44:17;14.30;70.10
52036;DHT22;38046;49.448;32.074;2023-03-23T10:47:09;14.30;70.30
52036;DHT22;38046;49.448;32.074;2023-03-23T10:52:41;14.50;70.60
52036;DHT22;38046;49.448;32.074;2023-03-23T10:55:09;14.60;70.50
52036;DHT22;38046;49.448;32.074;2023-03-23T10:57:37;14.70;70.30
52036;DHT22;38046;49.448;32.074;2023-03-23T11:02:40;14.80;69.90
52036;DHT22;38046;49.448;32.074;2023-03-23T11:05:19;14.90;69.90
52036;DHT22;38046;49.448;32.074;2023-03-23T11:08:03;14.90;69.70
52036;DHT22;38046;49.448;32.074;2023-03-23T11:10:38;15.00;69.80
52036;DHT22;38046;49.448;32.074;2023-03-23T11:13:05;15.10;69.70
52036;DHT22;38046;49.448;32.074;2023-03-23T11:15:41;15.00;69.60
52036;DHT22;38046;49.448;32.074;2023-03-23T11:18:11;15.10;69.50
52036;DHT22;38046;49.448;32.074;2023-03-23T11:20:40;15.10;69.40
52036;DHT22;38046;49.448;32.074;2023-03-23T11:23:21;15.10;69.30
52036;DHT22;38046;49.448;32.074;2023-03-23T11:28:30;15.10;69.10
52036;DHT22;38046;49.448;32.074;2023-03-23T11:30:58;15.10;69.10
52036;DHT22;38046;49.448;32.074;2023-03-23T11:33:25;15.10;69.10
52036;DHT22;38046;49.448;32.074;2023-03-23T11:35:54;15.00;69.00
52036;DHT22;38046;49.448;32.074;2023-03-23T11:38:21;15.00;69.20
52036;DHT22;38046;49.448;32.074;2023-03-23T11:40:50;15.00;69.20
52036;DHT22;38046;49.448;32.074;2023-03-23T11:43:23;15.00;69.20
52036;DHT22;38046;49.448;32.074;2023-03-23T11:51:21;14.90;69.40
52036;DHT22;38046;49.448;32.074;2023-03-23T11:54:09;14.90;69.40
52036;DHT22;38046;49.448;32.074;2023-03-23T11:56:41;14.90;69.60
52036;DHT22;38046;49.448;32.074;2023-03-23T11:59:16;14.80;69.50
52036;DHT22;38046;49.448;32.074;2023-03-23T12:07:58;14.80;69.40
52036;DHT22;38046;49.448;32.074;2023-03-23T12:16:38;14.80;69.50
52036;DHT22;38046;49.448;32.074;2023-03-23T12:22:02;14.90;69.30
52036;DHT22;38046;49.448;32.074;2023-03-23T12:25:04;15.00;69.30
52036;DHT22;38046;49.448;32.074;2023-03-23T12:32:59;15.10;68.80
52036;DHT22;38046;49.448;32.074;2023-03-23T12:35:34;15.20;68.90
52036;DHT22;38046;49.448;32.074;2023-03-23T12:38:47;15.20;68.80
52036;DHT22;38046;49.448;32.074;2023-03-23T12:41:17;15.30;68.70
52036;DHT22;38046;49.448;32.074;2023-03-23T12:43:52;15.30;68.80
52036;DHT22;38046;49.448;32.074;2023-03-23T12:46:38;15.30;69.20
52036;DHT22;38046;49.448;32.074;2023-03-23T12:49:26;15.40;68.30
52036;DHT22;38046;49.448;32.074;2023-03-23T12:52:02;15.40;68.00
52036;DHT22;38046;49.448;32.074;2023-03-23T12:54:42;15.40;67.90
52036;DHT22;38046;49.448;32.074;2023-03-23T13:00:48;15.50;67.80
52036;DHT22;38046;49.448;32.074;2023-03-23T13:03:17;15.50;67.80
52036;DHT22;38046;49.448;32.074;2023-03-23T13:05:54;15.60;67.60
52036;DHT22;38046;49.448;32.074;2023-03-23T13:08:30;15.60;67.50
52036;DHT22;38046;49.448;32.074;2023-03-23T13:11:03;15.60;67.30
52036;DHT22;38046;49.448;32.074;2023-03-23T13:13:54;15.60;67.00
52036;DHT22;38046;49.448;32.074;2023-03-23T13:22:02;15.60;66.50
52036;DHT22;38046;49.448;32.074;2023-03-23T13:24:33;15.60;66.60
52036;DHT22;38046;49.448;32.074;2023-03-23T13:27:00;15.50;66.70
52036;DHT22;38046;49.448;32.074;2023-03-23T13:29:27;15.50;66.60
52036;DHT22;38046;49.448;32.074;2023-03-23T13:32:10;15.60;66.60
52036;DHT22;38046;49.448;32.074;2023-03-23T13:34:36;15.60;66.40
52036;DHT22;38046;49.448;32.074;2023-03-23T13:37:05;15.50;66.20
52036;DHT22;38046;49.448;32.074;2023-03-23T13:49:56;15.50;65.90
52036;DHT22;38046;49.448;32.074;2023-03-23T13:52:58;15.50;65.70
52036;DHT22;38046;49.448;32.074;2023-03-23T13:58:10;15.50;65.80
52036;DHT22;38046;49.448;32.074;2023-03-23T14:01:02;15.50;65.70
52036;DHT22;38046;49.448;32.074;2023-03-23T14:03:42;15.50;65.60
52036;DHT22;38046;49.448;32.074;2023-03-23T14:06:19;15.50;65.50
52036;DHT22;38046;49.448;32.074;2023-03-23T14:08:50;15.50;66.10
52036;DHT22;38046;49.448;32.074;2023-03-23T14:14:06;15.50;65.50
52036;DHT22;38046;49.448;32.074;2023-03-23T14:16:36;15.50;65.40
52036;DHT22;38046;49.448;32.074;2023-03-23T14:19:12;15.50;65.30
52036;DHT22;38046;49.448;32.074;2023-03-23T14:21:41;15.50;65.20
52036;DHT22;38046;49.448;32.074;2023-03-23T14:24:15;15.50;65.10
52036;DHT22;38046;49.448;32.074;2023-03-23T14:26:41;15.40;65.30
52036;DHT22;38046;49.448;32.074;2023-03-23T14:29:11;15.40;65.30
52036;DHT22;38046;49.448;32.074;2023-03-23T14:31:38;15.40;65.30
52036;DHT22;38046;49.448;32.074;2023-03-23T14:34:18;15.40;65.20
52036;DHT22;38046;49.448;32.074;2023-03-23T14:36:45;15.30;65.10
52036;DHT22;38046;49.448;32.074;2023-03-23T14:42:05;15.30;65.20
52036;DHT22;38046;49.448;32.074;2023-03-23T14:44:34;15.20;65.20
52036;DHT22;38046;49.448;32.074;2023-03-23T14:47:13;15.20;65.40
52036;DHT22;38046;49.448;32.074;2023-03-23T14:49:42;15.20;65.40
52036;DHT22;38046;49.448;32.074;2023-03-23T14:54:38;15.20;65.60
52036;DHT22;38046;49.448;32.074;2023-03-23T14:59:51;15.20;65.60
52036;DHT22;38046;49.448;32.074;2023-03-23T15:02:20;15.20;65.50
52036;DHT22;38046;49.448;32.074;2023-03-23T15:04:51;15.20;65.70
52036;DHT22;38046;49.448;32.074;2023-03-23T15:07:31;15.20;65.70
52036;DHT22;38046;49.448;32.074;2023-03-23T15:09:58;15.20;65.70
52036;DHT22;38046;49.448;32.074;2023-03-23T15:12:26;15.20;66.00
52036;DHT22;38046;49.448;32.074;2023-03-23T15:14:55;15.10;65.70
52036;DHT22;38046;49.448;32.074;2023-03-23T15:17:28;15.10;65.70
52036;DHT22;38046;49.448;32.074;2023-03-23T15:19:55;15.10;65.70
52036;DHT22;38046;49.448;32.074;2023-03-23T15:22:25;15.10;65.80
52036;DHT22;38046;49.448;32.074;2023-03-23T15:24:54;15.10;65.70
52036;DHT22;38046;49.448;32.074;2023-03-23T15:27:34;15.00;65.70
52036;DHT22;38046;49.448;32.074;2023-03-23T15:30:37;15.00;65.80
52036;DHT22;38046;49.448;32.074;2023-03-23T15:33:12;14.90;65.60
52036;DHT22;38046;49.448;32.074;2023-03-23T15:35:44;14.90;65.70
52036;DHT22;38046;49.448;32.074;2023-03-23T15:38:24;14.90;65.70
52036;DHT22;38046;49.448;32.074;2023-03-23T15:40:56;14.90;65.70
52036;DHT22;38046;49.448;32.074;2023-03-23T15:43:24;14.80;65.80
52036;DHT22;38046;49.448;32.074;2023-03-23T15:46:03;14.80;65.90
52036;DHT22;38046;49.448;32.074;2023-03-23T15:49:19;14.70;65.90
52036;DHT22;38046;49.448;32.074;2023-03-23T15:51:21;14.70;66.10
52036;DHT22;38046;49.448;32.074;2023-03-23T15:53:50;14.60;66.20
52036;DHT22;38046;49.448;32.074;2023-03-23T15:56:17;14.60;66.30
52036;DHT22;38046;49.448;32.074;2023-03-23T15:58:43;14.60;66.30
52036;DHT22;38046;49.448;32.074;2023-03-23T16:01:18;14.60;66.60
52036;DHT22;38046;49.448;32.074;2023-03-23T16:04:15;14.60;66.50
52036;DHT22;38046;49.448;32.074;2023-03-23T16:06:42;14.50;66.50
52036;DHT22;38046;49.448;32.074;2023-03-23T16:09:17;14.50;66.70
52036;DHT22;38046;49.448;32.074;2023-03-23T16:11:43;14.50;66.80
52036;DHT22;38046;49.448;32.074;2023-03-23T16:14:09;14.50;67.00
52036;DHT22;38046;49.448;32.074;2023-03-23T16:16:47;14.60;67.00
52036;DHT22;38046;49.448;32.074;2023-03-23T16:19:14;14.50;67.00
52036;DHT22;38046;49.448;32.074;2023-03-23T16:21:41;14.50;67.00
52036;DHT22;38046;49.448;32.074;2023-03-23T16:24:08;14.50;67.10
52036;DHT22;38046;49.448;32.074;2023-03-23T16:26:34;14.50;67.30
52036;DHT22;38046;49.448;32.074;2023-03-23T16:29:00;14.50;67.40
52036;DHT22;38046;49.448;32.074;2023-03-23T16:31:27;14.40;67.50
52036;DHT22;38046;49.448;32.074;2023-03-23T16:33:53;14.40;67.50
52036;DHT22;38046;49.448;32.074;2023-03-23T16:36:19;14.40;67.60
52036;DHT22;38046;49.448;32.074;2023-03-23T16:38:45;14.40;67.70
52036;DHT22;38046;49.448;32.074;2023-03-23T16:41:11;14.40;67.70
52036;DHT22;38046;49.448;32.074;2023-03-23T16:43:36;14.40;67.90
52036;DHT22;38046;49.448;32.074;2023-03-23T16:46:02;14.30;67.90
52036;DHT22;38046;49.448;32.074;2023-03-23T16:48:28;14.30;68.00
52036;DHT22;38046;49.448;32.074;2023-03-23T16:50:54;14.30;68.00
52036;DHT22;38046;49.448;32.074;2023-03-23T16:53:20;14.30;68.20
52036;DHT22;38046;49.448;32.074;2023-03-23T16:55:47;14.20;68.30
52036;DHT22;38046;49.448;32.074;2023-03-23T16:58:15;14.20;68.40
52036;DHT22;38046;49.448;32.074;2023-03-23T17:00:42;14.20;68.60
52036;DHT22;38046;49.448;32.074;2023-03-23T17:03:09;14.20;68.60
52036;DHT22;38046;49.448;32.074;2023-03-23T17:05:36;14.20;68.60
52036;DHT22;38046;49.448;32.074;2023-03-23T17:08:02;14.20;68.70
52036;DHT22;38046;49.448;32.074;2023-03-23T17:10:29;14.30;68.90
52036;DHT22;38046;49.448;32.074;2023-03-23T17:12:55;14.30;69.00
52036;DHT22;38046;49.448;32.074;2023-03-23T17:15:21;14.30;69.00